sensor_id;sensor_type;location;lat;lon;timestamp;P1;durP1;ratioP1;P2;durP2;ratioP2
80115;SDS011;69423;47.608;19.366;2024-01-27T00:00:05;12.97;;;12.97;;
80115;SDS011;69423;47.608;19.366;2024-01-27T00:00:36;13.33;;;13.33;;
80115;SDS011;69423;47.608;19.366;2024-01-27T00:01:07;13.77;;;13.70;;
80115;SDS011;69423;47.608;19.366;2024-01-27T00:01:38;14.33;;;14.20;;
80115;SDS011;69423;47.608;19.366;2024-01-27T00:02:09;13.77;;;13.50;;
80115;SDS011;69423;47.608;19.366;2024-01-27T00:02:40;13.83;;;13.60;;
80115;SDS011;69423;47.608;19.366;2024-01-27T00:03:12;14.97;;;14.70;;
80115;SDS011;69423;47.608;19.366;2024-01-27T00:03:43;14.33;;;14.20;;
80115;SDS011;69423;47.608;19.366;2024-01-27T00:04:14;13.90;;;13.87;;
80115;SDS011;69423;47.608;19.366;2024-01-27T00:04:45;13.60;;;13.57;;
80115;SDS011;69423;47.608;19.366;2024-01-27T00:05:16;13.87;;;13.77;;
80115;SDS011;69423;47.608;19.366;2024-01-27T00:05:47;14.03;;;13.90;;
80115;SDS011;69423;47.608;19.366;2024-01-27T00:06:18;14.53;;;14.40;;
80115;SDS011;69423;47.608;19.366;2024-01-27T00:06:49;14.70;;;14.67;;
80115;SDS011;69423;47.608;19.366;2024-01-27T00:07:20;14.00;;;14.00;;
80115;SDS011;69423;47.608;19.366;2024-01-27T00:07:51;13.87;;;13.87;;
80115;SDS011;69423;47.608;19.366;2024-01-27T00:08:22;14.60;;;14.33;;
80115;SDS011;69423;47.608;19.366;2024-01-27T00:08:53;14.37;;;14.33;;
80115;SDS011;69423;47.608;19.366;2024-01-27T00:09:24;13.73;;;13.73;;
80115;SDS011;69423;47.608;19.366;2024-01-27T00:09:55;12.63;;;12.63;;
80115;SDS011;69423;47.608;19.366;2024-01-27T00:10:26;13.37;;;13.37;;
80115;SDS011;69423;47.608;19.366;2024-01-27T00:10:57;12.67;;;12.67;;
80115;SDS011;69423;47.608;19.366;2024-01-27T00:11:28;12.87;;;12.83;;
80115;SDS011;69423;47.608;19.366;2024-01-27T00:11:59;13.70;;;13.70;;
80115;SDS011;69423;47.608;19.366;2024-01-27T00:12:30;13.33;;;13.33;;
80115;SDS011;69423;47.608;19.366;2024-01-27T00:13:01;12.90;;;12.90;;
80115;SDS011;69423;47.608;19.366;2024-01-27T00:13:33;12.90;;;12.80;;
80115;SDS011;69423;47.608;19.366;2024-01-27T00:14:04;13.60;;;13.57;;
80115;SDS011;69423;47.608;19.366;2024-01-27T00:14:37;13.50;;;13.37;;
80115;SDS011;69423;47.608;19.366;2024-01-27T00:15:09;14.20;;;14.00;;
80115;SDS011;69423;47.608;19.366;2024-01-27T00:15:40;14.07;;;13.77;;
80115;SDS011;69423;47.608;19.366;2024-01-27T00:16:11;13.27;;;12.93;;
80115;SDS011;69423;47.608;19.366;2024-01-27T00:16:42;13.30;;;12.93;;
80115;SDS011;69423;47.608;19.366;2024-01-27T00:17:13;14.07;;;13.70;;
80115;SDS011;69423;47.608;19.366;2024-01-27T00:17:44;13.90;;;13.60;;
80115;SDS011;69423;47.608;19.366;2024-01-27T00:18:15;13.77;;;13.47;;
80115;SDS011;69423;47.608;19.366;2024-01-27T00:18:47;13.87;;;13.53;;
80115;SDS011;69423;47.608;19.366;2024-01-27T00:19:18;13.40;;;13.23;;
80115;SDS011;69423;47.608;19.366;2024-01-27T00:19:49;13.17;;;13.17;;
80115;SDS011;69423;47.608;19.366;2024-01-27T00:20:20;12.90;;;12.90;;
80115;SDS011;69423;47.608;19.366;2024-01-27T00:20:51;13.27;;;13.27;;
80115;SDS011;69423;47.608;19.366;2024-01-27T00:21:22;13.03;;;13.03;;
80115;SDS011;69423;47.608;19.366;2024-01-27T00:21:53;13.27;;;13.27;;
80115;SDS011;69423;47.608;19.366;2024-01-27T00:22:25;13.53;;;13.43;;
80115;SDS011;69423;47.608;19.366;2024-01-27T00:22:55;12.80;;;12.67;;
80115;SDS011;69423;47.608;19.366;2024-01-27T00:23:27;12.13;;;11.87;;
80115;SDS011;69423;47.608;19.366;2024-01-27T00:23:58;13.03;;;12.73;;
80115;SDS011;69423;47.608;19.366;2024-01-27T00:24:31;12.83;;;12.57;;
80115;SDS011;69423;47.608;19.366;2024-01-27T00:25:02;12.83;;;12.67;;
80115;SDS011;69423;47.608;19.366;2024-01-27T00:25:33;12.07;;;12.03;;
80115;SDS011;69423;47.608;19.366;2024-01-27T00:26:04;11.97;;;11.87;;
80115;SDS011;69423;47.608;19.366;2024-01-27T00:26:35;12.13;;;12.07;;
80115;SDS011;69423;47.608;19.366;2024-01-27T00:27:07;12.37;;;12.37;;
80115;SDS011;69423;47.608;19.366;2024-01-27T00:27:38;11.90;;;11.83;;
80115;SDS011;69423;47.608;19.366;2024-01-27T00:28:09;11.90;;;11.90;;
80115;SDS011;69423;47.608;19.366;2024-01-27T00:28:40;12.43;;;12.43;;
80115;SDS011;69423;47.608;19.366;2024-01-27T00:29:11;11.83;;;11.83;;
80115;SDS011;69423;47.608;19.366;2024-01-27T00:29:42;11.23;;;11.23;;
80115;SDS011;69423;47.608;19.366;2024-01-27T00:30:13;11.17;;;11.17;;
80115;SDS011;69423;47.608;19.366;2024-01-27T00:30:44;11.20;;;11.20;;
80115;SDS011;69423;47.608;19.366;2024-01-27T00:31:15;11.43;;;11.43;;
80115;SDS011;69423;47.608;19.366;2024-01-27T00:31:46;11.07;;;11.07;;
80115;SDS011;69423;47.608;19.366;2024-01-27T00:32:17;10.70;;;10.60;;
80115;SDS011;69423;47.608;19.366;2024-01-27T00:32:48;10.83;;;10.83;;
80115;SDS011;69423;47.608;19.366;2024-01-27T00:33:19;10.67;;;10.67;;
80115;SDS011;69423;47.608;19.366;2024-01-27T00:33:51;10.80;;;10.80;;
80115;SDS011;69423;47.608;19.366;2024-01-27T00:34:23;11.77;;;11.77;;
80115;SDS011;69423;47.608;19.366;2024-01-27T00:34:54;11.07;;;11.07;;
80115;SDS011;69423;47.608;19.366;2024-01-27T00:35:25;10.70;;;10.70;;
80115;SDS011;69423;47.608;19.366;2024-01-27T00:35:56;10.63;;;10.60;;
80115;SDS011;69423;47.608;19.366;2024-01-27T00:36:27;11.30;;;11.23;;
80115;SDS011;69423;47.608;19.366;2024-01-27T00:36:58;11.10;;;11.10;;
80115;SDS011;69423;47.608;19.366;2024-01-27T00:37:29;10.20;;;10.20;;
80115;SDS011;69423;47.608;19.366;2024-01-27T00:38:00;9.77;;;9.77;;
80115;SDS011;69423;47.608;19.366;2024-01-27T00:38:31;11.13;;;11.13;;
80115;SDS011;69423;47.608;19.366;2024-01-27T00:39:03;10.67;;;10.67;;
80115;SDS011;69423;47.608;19.366;2024-01-27T00:39:34;10.77;;;10.67;;
80115;SDS011;69423;47.608;19.366;2024-01-27T00:40:12;10.97;;;10.77;;
80115;SDS011;69423;47.608;19.366;2024-01-27T00:40:43;11.13;;;10.87;;
80115;SDS011;69423;47.608;19.366;2024-01-27T00:41:17;10.37;;;10.13;;
80115;SDS011;69423;47.608;19.366;2024-01-27T00:41:49;10.77;;;10.57;;
80115;SDS011;69423;47.608;19.366;2024-01-27T00:42:20;10.60;;;10.50;;
80115;SDS011;69423;47.608;19.366;2024-01-27T00:42:54;10.77;;;10.77;;
80115;SDS011;69423;47.608;19.366;2024-01-27T00:43:25;10.50;;;10.50;;
80115;SDS011;69423;47.608;19.366;2024-01-27T00:43:56;10.47;;;10.43;;
80115;SDS011;69423;47.608;19.366;2024-01-27T00:44:27;10.77;;;10.63;;
80115;SDS011;69423;47.608;19.366;2024-01-27T00:44:58;9.83;;;9.80;;
80115;SDS011;69423;47.608;19.366;2024-01-27T00:45:29;10.07;;;10.00;;
80115;SDS011;69423;47.608;19.366;2024-01-27T00:46:00;10.30;;;10.13;;
80115;SDS011;69423;47.608;19.366;2024-01-27T00:46:31;10.17;;;10.03;;
80115;SDS011;69423;47.608;19.366;2024-01-27T00:47:02;10.57;;;10.40;;
80115;SDS011;69423;47.608;19.366;2024-01-27T00:47:34;10.23;;;10.23;;
80115;SDS011;69423;47.608;19.366;2024-01-27T00:48:05;10.70;;;10.70;;
80115;SDS011;69423;47.608;19.366;2024-01-27T00:48:36;10.10;;;10.10;;
80115;SDS011;69423;47.608;19.366;2024-01-27T00:49:07;9.63;;;9.63;;
80115;SDS011;69423;47.608;19.366;2024-01-27T00:49:38;9.50;;;9.47;;
80115;SDS011;69423;47.608;19.366;2024-01-27T00:50:09;9.63;;;9.53;;
80115;SDS011;69423;47.608;19.366;2024-01-27T00:50:41;9.77;;;9.67;;
80115;SDS011;69423;47.608;19.366;2024-01-27T00:51:12;9.47;;;9.30;;
80115;SDS011;69423;47.608;19.366;2024-01-27T00:51:43;9.57;;;9.40;;
80115;SDS011;69423;47.608;19.366;2024-01-27T00:52:14;9.77;;;9.60;;
80115;SDS011;69423;47.608;19.366;2024-01-27T00:52:45;9.17;;;9.03;;
80115;SDS011;69423;47.608;19.366;2024-01-27T00:53:16;9.00;;;9.00;;
80115;SDS011;69423;47.608;19.366;2024-01-27T00:53:48;9.00;;;9.00;;
80115;SDS011;69423;47.608;19.366;2024-01-27T00:54:19;8.87;;;8.80;;
80115;SDS011;69423;47.608;19.366;2024-01-27T00:54:50;9.10;;;9.07;;
80115;SDS011;69423;47.608;19.366;2024-01-27T00:55:21;8.60;;;8.57;;
80115;SDS011;69423;47.608;19.366;2024-01-27T00:55:52;9.10;;;9.00;;
80115;SDS011;69423;47.608;19.366;2024-01-27T00:56:23;9.23;;;9.13;;
80115;SDS011;69423;47.608;19.366;2024-01-27T00:56:54;8.50;;;8.47;;
80115;SDS011;69423;47.608;19.366;2024-01-27T00:57:25;8.53;;;8.53;;
80115;SDS011;69423;47.608;19.366;2024-01-27T00:57:56;8.27;;;8.27;;
80115;SDS011;69423;47.608;19.366;2024-01-27T00:58:27;8.20;;;8.13;;
80115;SDS011;69423;47.608;19.366;2024-01-27T00:58:58;8.73;;;8.60;;
80115;SDS011;69423;47.608;19.366;2024-01-27T00:59:30;9.03;;;8.97;;
80115;SDS011;69423;47.608;19.366;2024-01-27T01:00:01;8.33;;;8.33;;
80115;SDS011;69423;47.608;19.366;2024-01-27T01:00:32;8.53;;;8.53;;
80115;SDS011;69423;47.608;19.366;2024-01-27T01:01:03;9.07;;;9.07;;
80115;SDS011;69423;47.608;19.366;2024-01-27T01:01:34;8.33;;;8.23;;
80115;SDS011;69423;47.608;19.366;2024-01-27T01:02:06;7.93;;;7.83;;
80115;SDS011;69423;47.608;19.366;2024-01-27T01:02:37;8.30;;;8.20;;
80115;SDS011;69423;47.608;19.366;2024-01-27T01:03:08;8.47;;;8.37;;
80115;SDS011;69423;47.608;19.366;2024-01-27T01:03:39;8.10;;;8.00;;
80115;SDS011;69423;47.608;19.366;2024-01-27T01:04:10;7.90;;;7.80;;
80115;SDS011;69423;47.608;19.366;2024-01-27T01:04:41;8.10;;;8.00;;
80115;SDS011;69423;47.608;19.366;2024-01-27T01:05:12;8.03;;;7.97;;
80115;SDS011;69423;47.608;19.366;2024-01-27T01:05:44;7.50;;;7.47;;
80115;SDS011;69423;47.608;19.366;2024-01-27T01:06:15;7.70;;;7.67;;
80115;SDS011;69423;47.608;19.366;2024-01-27T01:06:46;7.73;;;7.63;;
80115;SDS011;69423;47.608;19.366;2024-01-27T01:07:17;7.60;;;7.50;;
80115;SDS011;69423;47.608;19.366;2024-01-27T01:07:48;7.63;;;7.53;;
80115;SDS011;69423;47.608;19.366;2024-01-27T01:08:19;7.20;;;7.10;;
80115;SDS011;69423;47.608;19.366;2024-01-27T01:08:50;7.17;;;7.10;;
80115;SDS011;69423;47.608;19.366;2024-01-27T01:09:21;6.67;;;6.67;;
80115;SDS011;69423;47.608;19.366;2024-01-27T01:09:52;7.13;;;7.03;;
80115;SDS011;69423;47.608;19.366;2024-01-27T01:10:23;7.07;;;7.03;;
80115;SDS011;69423;47.608;19.366;2024-01-27T01:10:54;7.03;;;7.03;;
80115;SDS011;69423;47.608;19.366;2024-01-27T01:11:25;7.30;;;7.30;;
80115;SDS011;69423;47.608;19.366;2024-01-27T01:11:56;7.33;;;7.23;;
80115;SDS011;69423;47.608;19.366;2024-01-27T01:12:28;7.13;;;7.03;;
80115;SDS011;69423;47.608;19.366;2024-01-27T01:12:59;6.83;;;6.77;;
80115;SDS011;69423;47.608;19.366;2024-01-27T01:13:30;6.80;;;6.80;;
80115;SDS011;69423;47.608;19.366;2024-01-27T01:14:01;6.53;;;6.50;;
80115;SDS011;69423;47.608;19.366;2024-01-27T01:14:32;7.07;;;7.07;;
80115;SDS011;69423;47.608;19.366;2024-01-27T01:15:03;6.93;;;6.90;;
80115;SDS011;69423;47.608;19.366;2024-01-27T01:15:34;6.87;;;6.83;;
80115;SDS011;69423;47.608;19.366;2024-01-27T01:16:05;6.73;;;6.67;;
80115;SDS011;69423;47.608;19.366;2024-01-27T01:16:39;6.73;;;6.67;;
80115;SDS011;69423;47.608;19.366;2024-01-27T01:17:11;6.63;;;6.53;;
80115;SDS011;69423;47.608;19.366;2024-01-27T01:17:42;6.30;;;6.20;;
80115;SDS011;69423;47.608;19.366;2024-01-27T01:18:13;6.53;;;6.47;;
80115;SDS011;69423;47.608;19.366;2024-01-27T01:18:44;6.10;;;6.07;;
80115;SDS011;69423;47.608;19.366;2024-01-27T01:19:15;6.17;;;6.17;;
80115;SDS011;69423;47.608;19.366;2024-01-27T01:19:46;6.00;;;6.00;;
80115;SDS011;69423;47.608;19.366;2024-01-27T01:20:17;6.23;;;6.23;;
80115;SDS011;69423;47.608;19.366;2024-01-27T01:20:48;6.50;;;6.47;;
80115;SDS011;69423;47.608;19.366;2024-01-27T01:21:19;6.23;;;6.20;;
80115;SDS011;69423;47.608;19.366;2024-01-27T01:21:50;5.80;;;5.80;;
80115;SDS011;69423;47.608;19.366;2024-01-27T01:22:21;5.50;;;5.47;;
80115;SDS011;69423;47.608;19.366;2024-01-27T01:22:52;5.77;;;5.67;;
80115;SDS011;69423;47.608;19.366;2024-01-27T01:23:24;6.23;;;6.20;;
80115;SDS011;69423;47.608;19.366;2024-01-27T01:23:55;5.67;;;5.60;;
80115;SDS011;69423;47.608;19.366;2024-01-27T01:24:26;6.03;;;6.03;;
80115;SDS011;69423;47.608;19.366;2024-01-27T01:24:57;5.77;;;5.73;;
80115;SDS011;69423;47.608;19.366;2024-01-27T01:25:28;5.93;;;5.93;;
80115;SDS011;69423;47.608;19.366;2024-01-27T01:25:59;6.13;;;6.13;;
80115;SDS011;69423;47.608;19.366;2024-01-27T01:26:30;6.13;;;6.13;;
80115;SDS011;69423;47.608;19.366;2024-01-27T01:27:02;6.17;;;6.17;;
80115;SDS011;69423;47.608;19.366;2024-01-27T01:27:33;5.67;;;5.67;;
80115;SDS011;69423;47.608;19.366;2024-01-27T01:28:04;5.83;;;5.83;;
80115;SDS011;69423;47.608;19.366;2024-01-27T01:28:35;6.00;;;5.97;;
80115;SDS011;69423;47.608;19.366;2024-01-27T01:29:06;5.53;;;5.53;;
80115;SDS011;69423;47.608;19.366;2024-01-27T01:29:37;5.30;;;5.27;;
80115;SDS011;69423;47.608;19.366;2024-01-27T01:30:08;5.03;;;4.97;;
80115;SDS011;69423;47.608;19.366;2024-01-27T01:30:40;5.07;;;4.97;;
80115;SDS011;69423;47.608;19.366;2024-01-27T01:31:11;5.43;;;5.37;;
80115;SDS011;69423;47.608;19.366;2024-01-27T01:31:42;5.37;;;5.27;;
80115;SDS011;69423;47.608;19.366;2024-01-27T01:32:13;5.40;;;5.37;;
80115;SDS011;69423;47.608;19.366;2024-01-27T01:32:44;5.20;;;5.13;;
80115;SDS011;69423;47.608;19.366;2024-01-27T01:33:15;4.87;;;4.83;;
80115;SDS011;69423;47.608;19.366;2024-01-27T01:33:46;5.10;;;5.03;;
80115;SDS011;69423;47.608;19.366;2024-01-27T01:34:17;5.07;;;5.07;;
80115;SDS011;69423;47.608;19.366;2024-01-27T01:34:49;4.77;;;4.73;;
80115;SDS011;69423;47.608;19.366;2024-01-27T01:35:20;4.97;;;4.93;;
80115;SDS011;69423;47.608;19.366;2024-01-27T01:35:51;5.47;;;5.47;;
80115;SDS011;69423;47.608;19.366;2024-01-27T01:36:22;5.03;;;5.03;;
80115;SDS011;69423;47.608;19.366;2024-01-27T01:36:53;4.53;;;4.53;;
80115;SDS011;69423;47.608;19.366;2024-01-27T01:37:24;4.70;;;4.70;;
80115;SDS011;69423;47.608;19.366;2024-01-27T01:37:55;4.37;;;4.33;;
80115;SDS011;69423;47.608;19.366;2024-01-27T01:38:26;4.20;;;4.20;;
80115;SDS011;69423;47.608;19.366;2024-01-27T01:38:57;4.60;;;4.57;;
80115;SDS011;69423;47.608;19.366;2024-01-27T01:39:28;4.63;;;4.60;;
80115;SDS011;69423;47.608;19.366;2024-01-27T01:39:59;4.43;;;4.37;;
80115;SDS011;69423;47.608;19.366;2024-01-27T01:40:30;4.23;;;4.20;;
80115;SDS011;69423;47.608;19.366;2024-01-27T01:41:01;4.43;;;4.43;;
80115;SDS011;69423;47.608;19.366;2024-01-27T01:41:32;4.63;;;4.63;;
80115;SDS011;69423;47.608;19.366;2024-01-27T01:42:03;4.40;;;4.40;;
80115;SDS011;69423;47.608;19.366;2024-01-27T01:42:34;4.30;;;4.23;;
80115;SDS011;69423;47.608;19.366;2024-01-27T01:43:09;4.43;;;4.40;;
80115;SDS011;69423;47.608;19.366;2024-01-27T01:43:42;4.40;;;4.40;;
80115;SDS011;69423;47.608;19.366;2024-01-27T01:44:13;4.70;;;4.67;;
80115;SDS011;69423;47.608;19.366;2024-01-27T01:44:44;4.80;;;4.80;;
80115;SDS011;69423;47.608;19.366;2024-01-27T01:45:15;4.37;;;4.37;;
80115;SDS011;69423;47.608;19.366;2024-01-27T01:45:47;4.40;;;4.37;;
80115;SDS011;69423;47.608;19.366;2024-01-27T01:46:21;4.33;;;4.33;;
80115;SDS011;69423;47.608;19.366;2024-01-27T01:46:54;4.23;;;4.23;;
80115;SDS011;69423;47.608;19.366;2024-01-27T01:47:26;4.10;;;4.10;;
80115;SDS011;69423;47.608;19.366;2024-01-27T01:47:57;4.23;;;4.20;;
80115;SDS011;69423;47.608;19.366;2024-01-27T01:48:28;4.40;;;4.37;;
80115;SDS011;69423;47.608;19.366;2024-01-27T01:49:00;4.30;;;4.30;;
80115;SDS011;69423;47.608;19.366;2024-01-27T01:49:31;4.00;;;4.00;;
80115;SDS011;69423;47.608;19.366;2024-01-27T01:50:02;4.17;;;4.17;;
80115;SDS011;69423;47.608;19.366;2024-01-27T01:50:34;4.27;;;4.23;;
80115;SDS011;69423;47.608;19.366;2024-01-27T01:51:05;4.07;;;4.07;;
80115;SDS011;69423;47.608;19.366;2024-01-27T01:51:36;4.23;;;4.20;;
80115;SDS011;69423;47.608;19.366;2024-01-27T01:52:07;4.50;;;4.43;;
80115;SDS011;69423;47.608;19.366;2024-01-27T01:52:38;4.20;;;4.20;;
80115;SDS011;69423;47.608;19.366;2024-01-27T01:53:09;3.63;;;3.63;;
80115;SDS011;69423;47.608;19.366;2024-01-27T01:53:40;3.37;;;3.37;;
80115;SDS011;69423;47.608;19.366;2024-01-27T01:54:12;3.63;;;3.63;;
80115;SDS011;69423;47.608;19.366;2024-01-27T01:54:43;3.60;;;3.60;;
80115;SDS011;69423;47.608;19.366;2024-01-27T01:55:14;3.87;;;3.87;;
80115;SDS011;69423;47.608;19.366;2024-01-27T01:55:47;3.97;;;3.97;;
80115;SDS011;69423;47.608;19.366;2024-01-27T01:56:18;3.70;;;3.70;;
80115;SDS011;69423;47.608;19.366;2024-01-27T01:56:49;3.90;;;3.90;;
80115;SDS011;69423;47.608;19.366;2024-01-27T01:57:21;3.77;;;3.77;;
80115;SDS011;69423;47.608;19.366;2024-01-27T01:57:52;3.77;;;3.73;;
80115;SDS011;69423;47.608;19.366;2024-01-27T01:58:23;4.00;;;3.97;;
80115;SDS011;69423;47.608;19.366;2024-01-27T01:58:54;4.00;;;3.93;;
80115;SDS011;69423;47.608;19.366;2024-01-27T01:59:25;3.97;;;3.97;;
80115;SDS011;69423;47.608;19.366;2024-01-27T01:59:56;3.63;;;3.60;;
80115;SDS011;69423;47.608;19.366;2024-01-27T02:00:27;3.67;;;3.63;;
80115;SDS011;69423;47.608;19.366;2024-01-27T02:00:59;3.77;;;3.77;;
80115;SDS011;69423;47.608;19.366;2024-01-27T02:01:33;3.63;;;3.60;;
80115;SDS011;69423;47.608;19.366;2024-01-27T02:02:04;4.17;;;4.17;;
80115;SDS011;69423;47.608;19.366;2024-01-27T02:02:35;3.97;;;3.93;;
80115;SDS011;69423;47.608;19.366;2024-01-27T02:03:09;3.93;;;3.93;;
80115;SDS011;69423;47.608;19.366;2024-01-27T02:03:51;3.63;;;3.57;;
80115;SDS011;69423;47.608;19.366;2024-01-27T02:04:22;3.53;;;3.53;;
80115;SDS011;69423;47.608;19.366;2024-01-27T02:04:53;3.50;;;3.50;;
80115;SDS011;69423;47.608;19.366;2024-01-27T02:05:24;3.83;;;3.83;;
80115;SDS011;69423;47.608;19.366;2024-01-27T02:05:55;3.67;;;3.63;;
80115;SDS011;69423;47.608;19.366;2024-01-27T02:06:26;3.43;;;3.40;;
80115;SDS011;69423;47.608;19.366;2024-01-27T02:06:57;3.47;;;3.47;;
80115;SDS011;69423;47.608;19.366;2024-01-27T02:07:28;3.50;;;3.50;;
80115;SDS011;69423;47.608;19.366;2024-01-27T02:07:59;3.57;;;3.57;;
80115;SDS011;69423;47.608;19.366;2024-01-27T02:08:32;3.77;;;3.77;;
80115;SDS011;69423;47.608;19.366;2024-01-27T02:09:03;3.63;;;3.63;;
80115;SDS011;69423;47.608;19.366;2024-01-27T02:09:35;3.13;;;3.13;;
80115;SDS011;69423;47.608;19.366;2024-01-27T02:10:15;3.53;;;3.53;;
80115;SDS011;69423;47.608;19.366;2024-01-27T02:10:47;3.70;;;3.67;;
80115;SDS011;69423;47.608;19.366;2024-01-27T02:11:18;3.20;;;3.17;;
80115;SDS011;69423;47.608;19.366;2024-01-27T02:11:49;3.23;;;3.23;;
80115;SDS011;69423;47.608;19.366;2024-01-27T02:12:20;3.17;;;3.13;;
80115;SDS011;69423;47.608;19.366;2024-01-27T02:12:51;3.43;;;3.40;;
80115;SDS011;69423;47.608;19.366;2024-01-27T02:13:22;3.13;;;3.13;;
80115;SDS011;69423;47.608;19.366;2024-01-27T02:13:54;3.13;;;3.10;;
80115;SDS011;69423;47.608;19.366;2024-01-27T02:14:25;3.33;;;3.33;;
80115;SDS011;69423;47.608;19.366;2024-01-27T02:14:58;3.37;;;3.37;;
80115;SDS011;69423;47.608;19.366;2024-01-27T02:15:29;3.53;;;3.53;;
80115;SDS011;69423;47.608;19.366;2024-01-27T02:16:00;3.30;;;3.30;;
80115;SDS011;69423;47.608;19.366;2024-01-27T02:16:31;3.07;;;3.03;;
80115;SDS011;69423;47.608;19.366;2024-01-27T02:17:02;3.10;;;3.10;;
80115;SDS011;69423;47.608;19.366;2024-01-27T02:17:34;3.03;;;3.03;;
80115;SDS011;69423;47.608;19.366;2024-01-27T02:18:05;3.23;;;3.20;;
80115;SDS011;69423;47.608;19.366;2024-01-27T02:18:36;3.03;;;3.00;;
80115;SDS011;69423;47.608;19.366;2024-01-27T02:19:07;3.13;;;3.07;;
80115;SDS011;69423;47.608;19.366;2024-01-27T02:19:39;2.87;;;2.87;;
80115;SDS011;69423;47.608;19.366;2024-01-27T02:20:10;3.00;;;3.00;;
80115;SDS011;69423;47.608;19.366;2024-01-27T02:20:41;2.93;;;2.93;;
80115;SDS011;69423;47.608;19.366;2024-01-27T02:21:12;3.13;;;3.13;;
80115;SDS011;69423;47.608;19.366;2024-01-27T02:21:44;2.70;;;2.70;;
80115;SDS011;69423;47.608;19.366;2024-01-27T02:22:15;2.77;;;2.73;;
80115;SDS011;69423;47.608;19.366;2024-01-27T02:22:46;3.30;;;3.30;;
80115;SDS011;69423;47.608;19.366;2024-01-27T02:23:17;2.83;;;2.83;;
80115;SDS011;69423;47.608;19.366;2024-01-27T02:23:48;2.87;;;2.87;;
80115;SDS011;69423;47.608;19.366;2024-01-27T02:24:19;2.97;;;2.97;;
80115;SDS011;69423;47.608;19.366;2024-01-27T02:24:50;3.00;;;3.00;;
80115;SDS011;69423;47.608;19.366;2024-01-27T02:25:21;3.17;;;3.17;;
80115;SDS011;69423;47.608;19.366;2024-01-27T02:25:52;2.83;;;2.83;;
80115;SDS011;69423;47.608;19.366;2024-01-27T02:26:23;2.67;;;2.63;;
80115;SDS011;69423;47.608;19.366;2024-01-27T02:26:54;2.70;;;2.70;;
80115;SDS011;69423;47.608;19.366;2024-01-27T02:27:25;2.87;;;2.87;;
80115;SDS011;69423;47.608;19.366;2024-01-27T02:27:56;2.87;;;2.87;;
80115;SDS011;69423;47.608;19.366;2024-01-27T02:28:27;2.37;;;2.37;;
80115;SDS011;69423;47.608;19.366;2024-01-27T02:28:58;2.40;;;2.40;;
80115;SDS011;69423;47.608;19.366;2024-01-27T02:29:29;2.47;;;2.47;;
80115;SDS011;69423;47.608;19.366;2024-01-27T02:30:00;2.67;;;2.67;;
80115;SDS011;69423;47.608;19.366;2024-01-27T02:30:31;2.73;;;2.70;;
80115;SDS011;69423;47.608;19.366;2024-01-27T02:31:02;2.53;;;2.53;;
80115;SDS011;69423;47.608;19.366;2024-01-27T02:31:33;2.50;;;2.50;;
80115;SDS011;69423;47.608;19.366;2024-01-27T02:32:05;2.67;;;2.63;;
80115;SDS011;69423;47.608;19.366;2024-01-27T02:32:36;2.53;;;2.53;;
80115;SDS011;69423;47.608;19.366;2024-01-27T02:33:07;2.53;;;2.53;;
80115;SDS011;69423;47.608;19.366;2024-01-27T02:33:38;2.50;;;2.50;;
80115;SDS011;69423;47.608;19.366;2024-01-27T02:34:09;2.83;;;2.83;;
80115;SDS011;69423;47.608;19.366;2024-01-27T02:34:40;2.40;;;2.40;;
80115;SDS011;69423;47.608;19.366;2024-01-27T02:35:11;2.43;;;2.43;;
80115;SDS011;69423;47.608;19.366;2024-01-27T02:35:43;2.60;;;2.60;;
80115;SDS011;69423;47.608;19.366;2024-01-27T02:36:14;2.87;;;2.87;;
80115;SDS011;69423;47.608;19.366;2024-01-27T02:36:45;2.80;;;2.80;;
80115;SDS011;69423;47.608;19.366;2024-01-27T02:37:18;2.27;;;2.27;;
80115;SDS011;69423;47.608;19.366;2024-01-27T02:37:49;2.50;;;2.50;;
80115;SDS011;69423;47.608;19.366;2024-01-27T02:38:21;2.53;;;2.53;;
80115;SDS011;69423;47.608;19.366;2024-01-27T02:38:52;2.53;;;2.53;;
80115;SDS011;69423;47.608;19.366;2024-01-27T02:39:23;2.27;;;2.27;;
80115;SDS011;69423;47.608;19.366;2024-01-27T02:39:54;2.20;;;2.20;;
80115;SDS011;69423;47.608;19.366;2024-01-27T02:40:25;2.30;;;2.30;;
80115;SDS011;69423;47.608;19.366;2024-01-27T02:40:56;2.63;;;2.63;;
80115;SDS011;69423;47.608;19.366;2024-01-27T02:41:27;2.60;;;2.60;;
80115;SDS011;69423;47.608;19.366;2024-01-27T02:41:58;2.30;;;2.30;;
80115;SDS011;69423;47.608;19.366;2024-01-27T02:42:29;2.40;;;2.40;;
80115;SDS011;69423;47.608;19.366;2024-01-27T02:43:00;2.73;;;2.73;;
80115;SDS011;69423;47.608;19.366;2024-01-27T02:43:31;2.57;;;2.57;;
80115;SDS011;69423;47.608;19.366;2024-01-27T02:44:02;2.77;;;2.77;;
80115;SDS011;69423;47.608;19.366;2024-01-27T02:44:33;5.17;;;5.17;;
80115;SDS011;69423;47.608;19.366;2024-01-27T02:45:04;4.77;;;4.77;;
80115;SDS011;69423;47.608;19.366;2024-01-27T02:45:35;2.90;;;2.90;;
80115;SDS011;69423;47.608;19.366;2024-01-27T02:46:12;2.80;;;2.80;;
80115;SDS011;69423;47.608;19.366;2024-01-27T02:46:43;2.43;;;2.43;;
80115;SDS011;69423;47.608;19.366;2024-01-27T02:47:14;2.23;;;2.23;;
80115;SDS011;69423;47.608;19.366;2024-01-27T02:47:45;3.00;;;3.00;;
80115;SDS011;69423;47.608;19.366;2024-01-27T02:48:16;3.83;;;3.80;;
80115;SDS011;69423;47.608;19.366;2024-01-27T02:48:48;11.40;;;11.17;;
80115;SDS011;69423;47.608;19.366;2024-01-27T02:49:19;9.80;;;9.40;;
80115;SDS011;69423;47.608;19.366;2024-01-27T02:49:50;6.70;;;6.33;;
80115;SDS011;69423;47.608;19.366;2024-01-27T02:50:21;3.63;;;3.40;;
80115;SDS011;69423;47.608;19.366;2024-01-27T02:50:52;2.53;;;2.43;;
80115;SDS011;69423;47.608;19.366;2024-01-27T02:51:23;6.87;;;6.57;;
80115;SDS011;69423;47.608;19.366;2024-01-27T02:51:54;16.03;;;14.90;;
80115;SDS011;69423;47.608;19.366;2024-01-27T02:52:25;6.80;;;6.20;;
80115;SDS011;69423;47.608;19.366;2024-01-27T02:52:56;3.17;;;2.90;;
80115;SDS011;69423;47.608;19.366;2024-01-27T02:53:27;2.57;;;2.37;;
80115;SDS011;69423;47.608;19.366;2024-01-27T02:53:58;2.40;;;2.30;;
80115;SDS011;69423;47.608;19.366;2024-01-27T02:54:29;2.43;;;2.33;;
80115;SDS011;69423;47.608;19.366;2024-01-27T02:55:00;2.37;;;2.27;;
80115;SDS011;69423;47.608;19.366;2024-01-27T02:55:31;2.00;;;1.90;;
80115;SDS011;69423;47.608;19.366;2024-01-27T02:56:02;2.00;;;1.97;;
80115;SDS011;69423;47.608;19.366;2024-01-27T02:56:36;7.33;;;7.10;;
80115;SDS011;69423;47.608;19.366;2024-01-27T02:57:07;5.53;;;5.40;;
80115;SDS011;69423;47.608;19.366;2024-01-27T02:57:40;3.87;;;3.80;;
80115;SDS011;69423;47.608;19.366;2024-01-27T02:58:11;2.97;;;2.93;;
80115;SDS011;69423;47.608;19.366;2024-01-27T02:58:42;2.83;;;2.77;;
80115;SDS011;69423;47.608;19.366;2024-01-27T02:59:13;2.40;;;2.37;;
80115;SDS011;69423;47.608;19.366;2024-01-27T02:59:48;2.40;;;2.37;;
80115;SDS011;69423;47.608;19.366;2024-01-27T03:00:20;2.23;;;2.23;;
80115;SDS011;69423;47.608;19.366;2024-01-27T03:00:51;1.97;;;1.97;;
80115;SDS011;69423;47.608;19.366;2024-01-27T03:01:22;2.10;;;2.10;;
80115;SDS011;69423;47.608;19.366;2024-01-27T03:01:53;2.37;;;2.33;;
80115;SDS011;69423;47.608;19.366;2024-01-27T03:02:24;2.77;;;2.77;;
80115;SDS011;69423;47.608;19.366;2024-01-27T03:02:55;2.83;;;2.83;;
80115;SDS011;69423;47.608;19.366;2024-01-27T03:03:28;2.20;;;2.17;;
80115;SDS011;69423;47.608;19.366;2024-01-27T03:04:00;1.87;;;1.87;;
80115;SDS011;69423;47.608;19.366;2024-01-27T03:04:31;2.13;;;2.10;;